createdAt,value
2018-08-20T00:01:36.631Z,84.91
2018-08-20T00:04:06.981Z,84.93
2018-08-20T00:06:50.378Z,84.78
2018-08-20T00:09:20.727Z,85.63
2018-08-20T00:11:49.997Z,85.61
2018-08-20T00:14:21.172Z,85.59
2018-08-20T00:16:50.235Z,86.05
2018-08-20T00:19:19.217Z,85.71
2018-08-20T00:21:48.204Z,85.46
2018-08-20T00:24:17.111Z,85.79
2018-08-20T00:26:46.002Z,85.69
2018-08-20T00:29:14.924Z,85.53
2018-08-20T00:31:43.789Z,85.38
2018-08-20T00:34:12.720Z,85.53
2018-08-20T00:36:41.958Z,85.52
2018-08-20T00:39:11.594Z,85.66
2018-08-20T00:41:40.493Z,86.23
2018-08-20T00:44:12.353Z,86.38
2018-08-20T00:46:42.265Z,87.08
2018-08-20T00:49:11.463Z,87.20
2018-08-20T00:51:40.377Z,86.58
2018-08-20T00:54:09.296Z,86.71
2018-08-20T00:56:38.246Z,86.40
2018-08-20T00:59:07.140Z,86.32
2018-08-20T01:01:36.075Z,85.84
2018-08-20T01:04:05.092Z,85.88
2018-08-20T01:06:34.048Z,85.44
2018-08-20T01:09:03.005Z,85.56
2018-08-20T01:11:31.903Z,85.16
2018-08-20T01:14:00.834Z,85.26
2018-08-20T01:16:29.754Z,85.02
2018-08-20T01:18:58.720Z,85.44
2018-08-20T01:21:27.656Z,85.39
2018-08-20T01:23:56.583Z,85.11
2018-08-20T01:26:25.496Z,84.43
2018-08-20T01:28:54.461Z,84.21
2018-08-20T01:31:23.379Z,84.76
2018-08-20T01:33:52.379Z,84.14
2018-08-20T01:36:21.333Z,84.77
2018-08-20T01:38:50.288Z,84.72
2018-08-20T01:41:19.192Z,84.60
2018-08-20T01:43:48.095Z,84.22
2018-08-20T01:46:17.017Z,84.61
2018-08-20T01:48:45.947Z,84.79
2018-08-20T01:51:14.877Z,84.45
2018-08-20T01:53:43.797Z,84.28
2018-08-20T01:56:12.787Z,84.74
2018-08-20T01:58:41.703Z,84.34
2018-08-20T02:01:10.664Z,84.71
2018-08-20T02:03:39.576Z,84.81
2018-08-20T02:06:08.504Z,84.78
2018-08-20T02:08:37.455Z,84.38
2018-08-20T02:11:06.391Z,84.62
2018-08-20T02:13:35.295Z,84.76
2018-08-20T02:16:04.264Z,85.28
2018-08-20T02:18:33.171Z,85.29
2018-08-20T02:21:02.106Z,85.50
2018-08-20T02:23:31.075Z,85.28
2018-08-20T02:25:59.955Z,85.91
2018-08-20T02:28:29.106Z,85.67
2018-08-20T02:30:58.023Z,85.73
2018-08-20T02:33:26.923Z,85.30
2018-08-20T02:35:55.885Z,85.15
2018-08-20T02:38:24.796Z,85.51
2018-08-20T02:40:53.759Z,85.73
2018-08-20T02:43:22.773Z,85.06
2018-08-20T02:45:51.680Z,85.71
2018-08-20T02:48:20.684Z,85.82
2018-08-20T02:50:49.816Z,85.91
2018-08-20T02:53:18.734Z,85.76
2018-08-20T02:55:47.699Z,85.21
2018-08-20T02:58:16.619Z,85.60
2018-08-20T03:00:45.551Z,85.51
2018-08-20T03:03:14.423Z,85.73
2018-08-20T03:05:43.330Z,85.80
2018-08-20T03:08:12.272Z,85.53
2018-08-20T03:10:41.184Z,85.62
2018-08-20T03:13:10.083Z,85.68
2018-08-20T03:15:39.012Z,85.64
2018-08-20T03:18:08.068Z,85.80
2018-08-20T03:20:37.024Z,85.89
2018-08-20T03:23:06.396Z,86.03
2018-08-20T03:25:35.302Z,85.56
2018-08-20T03:28:04.407Z,85.89
2018-08-20T03:30:33.436Z,85.91
2018-08-20T03:33:02.438Z,85.73
2018-08-20T03:35:31.375Z,86.04
2018-08-20T03:38:00.303Z,85.52
2018-08-20T03:40:29.222Z,85.87
2018-08-20T03:42:58.170Z,86.51
2018-08-20T03:45:27.172Z,86.19
2018-08-20T03:47:56.086Z,86.67
2018-08-20T03:50:26.040Z,86.28
2018-08-20T03:52:55.152Z,86.11
2018-08-20T03:55:24.141Z,85.98
2018-08-20T03:57:53.008Z,86.18
2018-08-20T04:00:24.257Z,86.11
2018-08-20T04:02:53.446Z,85.99
2018-08-20T04:05:22.387Z,85.83
2018-08-20T04:07:51.242Z,86.27
2018-08-20T04:10:20.156Z,86.16
2018-08-20T04:12:49.060Z,85.65
2018-08-20T04:15:18.080Z,85.99
2018-08-20T04:17:46.954Z,85.27
2018-08-20T04:20:15.877Z,85.53
2018-08-20T04:22:44.793Z,84.99
2018-08-20T04:25:13.734Z,85.28
2018-08-20T04:27:42.656Z,84.62
2018-08-20T04:30:11.575Z,84.28
2018-08-20T04:32:40.525Z,84.71
2018-08-20T04:35:09.478Z,84.32
2018-08-20T04:37:38.353Z,83.56
2018-08-20T04:40:08.670Z,83.87
2018-08-20T04:42:37.583Z,83.37
2018-08-20T04:45:07.261Z,82.71
2018-08-20T04:47:36.152Z,83.31
2018-08-20T04:50:07.355Z,82.47
2018-08-20T04:52:36.144Z,82.13
2018-08-20T04:55:05.228Z,81.94
2018-08-20T04:57:34.102Z,81.84
2018-08-20T05:00:03.036Z,81.71
2018-08-20T05:02:31.961Z,81.84
2018-08-20T05:05:00.856Z,81.11
2018-08-20T05:07:29.798Z,81.19
2018-08-20T05:09:58.706Z,80.76
2018-08-20T05:12:27.574Z,80.71
2018-08-20T05:14:56.494Z,80.55
2018-08-20T05:17:25.611Z,81.11
2018-08-20T05:19:54.538Z,80.66
2018-08-20T05:22:23.492Z,80.67
2018-08-20T05:24:52.418Z,80.73
2018-08-20T05:27:21.291Z,80.91
2018-08-20T05:29:50.196Z,81.47
2018-08-20T05:32:19.672Z,81.28
2018-08-20T05:34:48.860Z,81.13
2018-08-20T05:37:17.825Z,81.39
2018-08-20T05:39:46.794Z,81.17
2018-08-20T05:42:15.713Z,80.70
2018-08-20T05:44:44.664Z,81.08
2018-08-20T05:47:13.538Z,80.95
2018-08-20T05:49:42.450Z,81.25
2018-08-20T05:52:11.364Z,81.01
2018-08-20T05:54:40.382Z,80.46
2018-08-20T05:57:09.397Z,79.96
2018-08-20T05:59:38.419Z,79.92
2018-08-20T06:02:07.393Z,80.53
2018-08-20T06:04:36.310Z,79.67
2018-08-20T06:07:05.272Z,79.70
2018-08-20T06:09:34.150Z,79.68
2018-08-20T06:12:03.096Z,79.93
2018-08-20T06:14:32.014Z,79.45
2018-08-20T06:17:01.109Z,79.38
2018-08-20T06:19:30.018Z,79.87
2018-08-20T06:21:58.944Z,79.19
2018-08-20T06:24:27.854Z,79.22
2018-08-20T06:26:56.738Z,80.51
2018-08-20T06:29:25.745Z,80.73
2018-08-20T06:31:54.655Z,80.32
2018-08-20T06:34:23.560Z,79.56
2018-08-20T06:36:52.507Z,79.68
2018-08-20T06:39:21.563Z,79.18
2018-08-20T06:41:50.513Z,79.46
2018-08-20T06:44:19.469Z,79.33
2018-08-20T06:46:48.350Z,79.46
2018-08-20T06:49:18.391Z,79.13
2018-08-20T06:51:47.318Z,78.94
2018-08-20T06:54:16.228Z,79.13
2018-08-20T06:56:45.171Z,78.96
2018-08-20T06:59:14.235Z,78.76
2018-08-20T07:01:43.139Z,78.84
2018-08-20T07:04:12.063Z,79.05
2018-08-20T07:06:41.056Z,78.38
2018-08-20T07:09:10.059Z,78.26
2018-08-20T07:11:39.060Z,78.23
2018-08-20T07:14:08.032Z,78.31
2018-08-20T07:16:37.060Z,77.01
2018-08-20T07:19:05.999Z,77.01
2018-08-20T07:21:34.960Z,76.34
2018-08-20T07:24:03.960Z,76.91
2018-08-20T07:26:32.910Z,76.40
2018-08-20T07:29:01.794Z,75.91
2018-08-20T07:31:30.748Z,76.54
2018-08-20T07:33:59.702Z,76.31
2018-08-20T07:36:28.680Z,76.20
2018-08-20T07:38:57.748Z,76.62
2018-08-20T07:41:26.742Z,76.18
2018-08-20T07:43:56.760Z,76.22
2018-08-20T07:46:25.652Z,75.91
2018-08-20T07:48:54.555Z,76.63
2018-08-20T07:51:23.544Z,76.30
2018-08-20T07:53:52.469Z,76.35
2018-08-20T07:56:21.411Z,76.29
2018-08-20T07:58:55.866Z,76.48
2018-08-20T08:01:30.385Z,75.75
2018-08-20T08:03:59.366Z,75.68
2018-08-20T08:06:28.302Z,75.12
2018-08-20T08:09:02.778Z,74.71
2018-08-20T08:11:31.671Z,75.19
2018-08-20T08:14:02.239Z,75.30
2018-08-20T08:16:31.122Z,75.12
2018-08-20T08:19:00.075Z,74.56
2018-08-20T08:21:29.003Z,74.75
2018-08-20T08:23:58.002Z,74.07
2018-08-20T08:26:27.047Z,74.22
2018-08-20T08:28:56.023Z,74.16
2018-08-20T08:31:24.985Z,74.15
2018-08-20T08:33:55.093Z,74.01
2018-08-20T08:36:24.063Z,73.10
2018-08-20T08:38:53.091Z,73.01
2018-08-20T08:41:22.134Z,73.72
2018-08-20T08:43:51.184Z,73.71
2018-08-20T08:46:20.283Z,73.62
2018-08-20T08:48:49.243Z,73.30
2018-08-20T08:51:18.297Z,74.06
2018-08-20T08:53:47.302Z,73.99
2018-08-20T08:56:16.234Z,74.58
2018-08-20T08:58:45.232Z,74.03
2018-08-20T09:01:14.225Z,73.96
2018-08-20T09:03:43.278Z,74.48
2018-08-20T09:06:12.197Z,74.13
2018-08-20T09:08:41.283Z,73.32
2018-08-20T09:11:10.241Z,73.79
2018-08-20T09:13:39.955Z,73.13
2018-08-20T09:16:08.903Z,72.73
2018-08-20T09:18:37.791Z,72.78
2018-08-20T09:21:06.767Z,72.72
2018-08-20T09:23:35.641Z,72.29
2018-08-20T09:26:04.620Z,72.38
2018-08-20T09:28:33.563Z,72.46
2018-08-20T09:31:02.539Z,71.74
2018-08-20T09:33:31.661Z,72.13
2018-08-20T09:36:00.569Z,72.86
2018-08-20T09:38:29.512Z,72.46
2018-08-20T09:40:58.550Z,72.14
2018-08-20T09:43:27.423Z,71.84
2018-08-20T09:45:56.408Z,72.26
2018-08-20T09:48:25.279Z,71.99
2018-08-20T09:50:54.269Z,71.75
2018-08-20T09:53:23.233Z,70.07
2018-08-20T09:55:52.091Z,70.76
2018-08-20T09:58:21.029Z,70.36
2018-08-20T10:00:49.963Z,70.62
2018-08-20T10:03:19.033Z,70.98
2018-08-20T10:05:48.011Z,71.60
2018-08-20T10:08:16.957Z,71.83
2018-08-20T10:10:45.911Z,70.93
2018-08-20T10:13:14.872Z,70.54
2018-08-20T10:15:43.857Z,70.49
2018-08-20T10:18:12.792Z,71.02
2018-08-20T10:20:41.816Z,70.67
2018-08-20T10:23:10.703Z,70.37
2018-08-20T10:25:39.721Z,70.64
2018-08-20T10:28:08.644Z,71.03
2018-08-20T10:30:37.583Z,70.45
2018-08-20T10:33:06.603Z,70.23
2018-08-20T10:35:36.578Z,69.13
2018-08-20T10:38:06.442Z,68.29
2018-08-20T10:40:35.371Z,67.39
2018-08-20T10:43:04.467Z,66.15
2018-08-20T10:45:39.690Z,66.62
2018-08-20T10:48:08.709Z,65.44
2018-08-20T10:50:37.741Z,64.82
2018-08-20T10:53:07.036Z,65.22
2018-08-20T10:55:36.008Z,65.33
2018-08-20T10:58:04.976Z,64.88
2018-08-20T11:00:33.992Z,64.38
2018-08-20T11:03:03.061Z,64.21
2018-08-20T11:05:32.032Z,64.02
2018-08-20T11:08:00.992Z,64.20
2018-08-20T11:10:30.005Z,64.78
2018-08-20T11:12:58.994Z,64.64
2018-08-20T11:15:27.917Z,65.52
2018-08-20T11:17:56.894Z,64.95
2018-08-20T11:20:25.830Z,64.27
2018-08-20T11:22:54.764Z,64.45
2018-08-20T11:25:23.784Z,63.91
2018-08-20T11:27:52.684Z,63.63
2018-08-20T11:30:21.686Z,63.41
2018-08-20T11:32:50.598Z,62.93
2018-08-20T11:35:19.597Z,62.75
2018-08-20T11:37:48.593Z,62.52
2018-08-20T11:40:17.556Z,61.98
2018-08-20T11:42:46.585Z,62.06
2018-08-20T11:45:15.568Z,61.70
2018-08-20T11:47:44.808Z,61.67
2018-08-20T11:50:13.744Z,61.86
2018-08-20T11:52:42.744Z,60.73
2018-08-20T11:55:11.789Z,61.32
2018-08-20T11:57:40.762Z,61.42
2018-08-20T12:00:10.738Z,60.78
2018-08-20T12:02:40.113Z,61.20
2018-08-20T12:05:10.162Z,60.73
2018-08-20T12:07:39.261Z,60.98
2018-08-20T12:10:09.874Z,60.89
2018-08-20T12:12:39.373Z,61.09
2018-08-20T12:15:10.384Z,61.08
2018-08-20T12:17:39.629Z,60.95
2018-08-20T12:20:09.435Z,61.88
2018-08-20T12:22:39.236Z,60.94
2018-08-20T12:25:11.796Z,60.32
2018-08-20T12:27:40.804Z,60.80
2018-08-20T12:30:10.896Z,60.26
2018-08-20T12:32:40.340Z,59.59
2018-08-20T12:35:09.910Z,60.10
2018-08-20T12:37:40.146Z,60.75
2018-08-20T12:40:09.116Z,61.63
2018-08-20T12:42:38.000Z,61.58
2018-08-20T12:45:07.454Z,61.66
2018-08-20T12:47:36.407Z,61.95
2018-08-20T12:50:05.702Z,61.97
2018-08-20T12:52:34.651Z,61.66
2018-08-20T12:55:03.594Z,61.21
2018-08-20T12:57:32.556Z,61.77
2018-08-20T13:00:01.526Z,61.82
2018-08-20T13:02:30.399Z,61.50
2018-08-20T13:04:59.393Z,61.07
2018-08-20T13:07:28.386Z,60.94
2018-08-20T13:09:57.312Z,60.28
2018-08-20T13:12:26.342Z,58.83
2018-08-20T13:14:55.304Z,58.88
2018-08-20T13:17:24.329Z,58.66
2018-08-20T13:19:53.428Z,58.80
2018-08-20T13:22:27.800Z,59.41
2018-08-20T13:25:03.437Z,60.11
2018-08-20T13:27:32.356Z,59.42
2018-08-20T13:30:01.326Z,59.29
2018-08-20T13:32:30.269Z,59.37
2018-08-20T13:34:59.214Z,59.11
2018-08-20T13:37:28.284Z,59.54
2018-08-20T13:39:57.196Z,59.35
2018-08-20T13:42:26.104Z,59.18
2018-08-20T13:44:55.040Z,58.39
2018-08-20T13:47:23.919Z,58.96
2018-08-20T13:49:55.265Z,59.36
2018-08-20T13:52:24.165Z,58.80
2018-08-20T13:54:53.130Z,59.08
2018-08-20T13:57:22.066Z,59.32
2018-08-20T13:59:51.029Z,59.79
2018-08-20T14:02:19.960Z,59.75
2018-08-20T14:04:48.959Z,59.04
2018-08-20T14:07:17.899Z,58.68
2018-08-20T14:09:46.827Z,58.70
2018-08-20T14:12:15.719Z,59.04
2018-08-20T14:14:44.683Z,58.61
2018-08-20T14:17:19.208Z,58.30
2018-08-20T14:19:48.178Z,58.58
2018-08-20T14:22:17.110Z,57.74
2018-08-20T14:24:46.074Z,58.19
2018-08-20T14:27:14.963Z,58.12
2018-08-20T14:29:43.973Z,58.21
2018-08-20T14:32:12.876Z,57.98
2018-08-20T14:34:41.874Z,57.93
2018-08-20T14:37:10.872Z,57.98
2018-08-20T14:39:39.824Z,58.03
2018-08-20T14:44:38.052Z,57.65
2018-08-20T14:47:10.752Z,57.80
2018-08-20T14:49:40.364Z,57.79
2018-08-20T14:59:07.042Z,57.72
2018-08-20T15:01:36.522Z,58.01
2018-08-20T15:04:05.446Z,58.53
2018-08-20T15:06:39.538Z,57.90
2018-08-20T15:09:09.538Z,57.87
2018-08-20T15:11:38.514Z,57.96
2018-08-20T15:14:07.510Z,58.26
2018-08-20T15:16:36.548Z,58.27
2018-08-20T15:19:05.500Z,58.59
2018-08-20T15:21:37.991Z,59.58
2018-08-20T15:24:06.927Z,58.97
2018-08-20T15:26:35.981Z,59.29
2018-08-20T15:29:05.169Z,59.41
2018-08-20T15:31:36.223Z,59.57
2018-08-20T15:34:06.295Z,59.69
2018-08-20T15:36:39.231Z,59.38
2018-08-20T15:39:08.783Z,59.62
2018-08-20T15:41:38.743Z,59.78
2018-08-20T15:44:08.765Z,60.79
2018-08-20T15:46:37.736Z,61.25
2018-08-20T15:49:06.989Z,60.04
2018-08-20T15:51:36.211Z,59.75
2018-08-20T15:54:07.274Z,60.44
2018-08-20T15:56:36.213Z,60.39
2018-08-20T15:59:05.205Z,60.29
2018-08-20T16:01:34.149Z,60.14
2018-08-20T16:04:03.099Z,60.44
2018-08-20T16:06:37.684Z,60.10
2018-08-20T16:09:08.477Z,60.81
2018-08-20T16:11:39.475Z,60.80
2018-08-20T16:14:08.547Z,60.55
2018-08-20T16:16:39.517Z,61.14
2018-08-20T16:19:19.516Z,61.59
2018-08-20T16:21:51.561Z,61.35
2018-08-20T16:24:23.085Z,61.30
2018-08-20T16:27:01.496Z,61.42
2018-08-20T16:29:39.643Z,62.17
2018-08-20T16:32:10.574Z,62.32
2018-08-20T16:34:42.229Z,62.52
2018-08-20T16:37:13.321Z,62.61
2018-08-20T16:39:42.394Z,62.38
2018-08-20T16:42:11.340Z,62.50
2018-08-20T16:44:40.309Z,62.29
2018-08-20T16:47:09.306Z,62.48
2018-08-20T16:49:38.230Z,62.25
2018-08-20T16:52:07.278Z,62.67
2018-08-20T16:54:36.248Z,62.46
2018-08-20T16:57:05.290Z,62.11
2018-08-20T16:59:34.254Z,62.02
2018-08-20T17:02:03.218Z,61.65
2018-08-20T17:04:38.824Z,61.50
2018-08-20T17:07:07.747Z,61.73
2018-08-20T17:09:36.787Z,61.27
2018-08-20T17:12:05.813Z,61.93
2018-08-20T17:14:34.682Z,61.90
2018-08-20T17:17:03.695Z,61.76
2018-08-20T17:19:32.745Z,61.52
2018-08-20T17:22:01.943Z,62.24
2018-08-20T17:24:36.177Z,62.43
2018-08-20T17:27:05.134Z,62.16
2018-08-20T17:29:34.075Z,62.29
2018-08-20T17:32:04.459Z,62.21
2018-08-20T17:34:33.389Z,62.20
2018-08-20T17:37:02.359Z,62.78
2018-08-20T17:39:31.323Z,62.49
2018-08-20T17:42:00.299Z,62.67
2018-08-20T17:44:29.207Z,63.06
2018-08-20T17:46:58.131Z,62.93
2018-08-20T17:49:28.979Z,62.81
2018-08-20T17:51:57.975Z,63.05
2018-08-20T17:54:29.473Z,62.80
2018-08-20T17:56:58.515Z,62.56
2018-08-20T17:59:27.418Z,62.54
2018-08-20T18:01:56.381Z,63.11
2018-08-20T18:04:25.315Z,62.67
2018-08-20T18:06:55.677Z,63.18
2018-08-20T18:09:24.658Z,62.87
2018-08-20T18:11:54.917Z,63.11
2018-08-20T18:14:25.927Z,62.74
2018-08-20T18:16:54.978Z,62.54
2018-08-20T18:19:23.924Z,63.05
2018-08-20T18:21:52.927Z,63.45
2018-08-20T18:24:22.498Z,63.67
2018-08-20T18:26:55.899Z,63.51
2018-08-20T18:29:24.845Z,63.71
2018-08-20T18:31:57.879Z,63.34
2018-08-20T18:34:26.825Z,64.22
2018-08-20T18:36:55.722Z,64.43
2018-08-20T18:39:24.752Z,64.79
2018-08-20T18:41:58.561Z,65.07
2018-08-20T18:44:27.509Z,65.35
2018-08-20T18:46:56.443Z,65.03
2018-08-20T18:49:25.553Z,65.40
2018-08-20T18:52:11.045Z,66.24
2018-08-20T18:54:42.089Z,66.71
2018-08-20T18:57:15.423Z,67.49
2018-08-20T18:59:44.368Z,68.63
2018-08-20T19:02:21.030Z,69.76
2018-08-20T19:04:49.974Z,70.19
2018-08-20T19:07:18.986Z,70.58
2018-08-20T19:09:49.569Z,70.68
2018-08-20T19:12:19.502Z,70.73
2018-08-20T19:14:48.455Z,71.12
2018-08-20T19:17:24.282Z,70.65
2018-08-20T19:19:53.160Z,71.09
2018-08-20T19:22:28.116Z,71.21
2018-08-20T19:24:57.085Z,71.02
2018-08-20T19:27:30.444Z,71.60
2018-08-20T19:30:07.328Z,71.08
2018-08-20T19:32:36.259Z,72.09
2018-08-20T19:35:05.213Z,72.39
2018-08-20T19:37:34.247Z,72.14
2018-08-20T19:40:03.213Z,72.16
2018-08-20T19:42:33.957Z,71.40
2018-08-20T19:45:04.745Z,71.60
2018-08-20T19:47:34.160Z,71.54
2018-08-20T19:50:03.291Z,71.86
2018-08-20T19:52:32.292Z,72.13
2018-08-20T19:55:08.316Z,73.30
2018-08-20T19:57:37.265Z,74.12
2018-08-20T20:00:13.147Z,74.09
2018-08-20T20:02:43.148Z,74.03
2018-08-20T20:05:14.395Z,74.18
2018-08-20T20:07:54.593Z,74.50
2018-08-20T20:10:23.500Z,74.22
2018-08-20T20:12:53.959Z,73.71
2018-08-20T20:15:23.576Z,74.33
2018-08-20T20:17:53.119Z,74.09
2018-08-20T20:20:21.994Z,73.93
2018-08-20T20:22:50.933Z,73.78
2018-08-20T20:25:19.999Z,74.58
2018-08-20T20:27:48.934Z,74.91
2018-08-20T20:30:17.877Z,75.34
2018-08-20T20:32:46.900Z,74.92
2018-08-20T20:35:15.817Z,75.29
2018-08-20T20:37:44.695Z,75.71
2018-08-20T20:40:13.593Z,75.03
2018-08-20T20:42:42.499Z,74.99
2018-08-20T20:45:11.433Z,75.42
2018-08-20T20:47:40.393Z,75.46
2018-08-20T20:50:09.316Z,75.08
2018-08-20T20:52:38.562Z,75.24
2018-08-20T20:55:07.528Z,75.72
2018-08-20T20:57:36.512Z,75.41
2018-08-20T21:00:06.472Z,75.80
2018-08-20T21:02:35.384Z,75.36
2018-08-20T21:05:08.803Z,75.96
2018-08-20T21:07:37.839Z,76.20
2018-08-20T21:10:07.624Z,75.85
2018-08-20T21:12:36.581Z,76.19
2018-08-20T21:15:06.804Z,76.23
2018-08-20T21:17:37.512Z,75.84
2018-08-20T21:20:07.464Z,75.17
2018-08-20T21:22:37.074Z,75.07
2018-08-20T21:25:06.662Z,75.60
2018-08-20T21:27:35.588Z,75.34
2018-08-20T21:30:04.562Z,75.27
2018-08-20T21:32:33.548Z,76.02
2018-08-20T21:35:02.441Z,75.97
2018-08-20T21:37:31.347Z,76.15
2018-08-20T21:40:00.264Z,76.22
2018-08-20T21:42:33.324Z,76.45
2018-08-20T21:45:02.277Z,76.65
2018-08-20T21:47:32.014Z,76.69
2018-08-20T21:50:00.929Z,76.74
2018-08-20T21:52:29.858Z,76.71
2018-08-20T21:54:58.764Z,76.62
2018-08-20T21:57:27.680Z,76.87
2018-08-20T22:00:08.054Z,77.13
2018-08-20T22:02:37.855Z,76.95
2018-08-20T22:05:07.028Z,77.00
2018-08-20T22:07:36.573Z,76.45
2018-08-20T22:10:05.877Z,76.20
2018-08-20T22:12:34.844Z,76.10
2018-08-20T22:15:03.851Z,75.88
2018-08-20T22:17:32.747Z,76.74
2018-08-20T22:20:01.696Z,76.32
2018-08-20T22:22:30.587Z,76.40
2018-08-20T22:25:01.551Z,76.78
2018-08-20T22:27:34.615Z,76.32
2018-08-20T22:30:03.954Z,76.32
2018-08-20T22:32:34.271Z,76.90
2018-08-20T22:35:08.525Z,77.00
2018-08-20T22:37:37.423Z,77.37
2018-08-20T22:40:12.288Z,77.45
2018-08-20T22:42:47.696Z,77.21
2018-08-20T22:45:17.730Z,76.79
2018-08-20T22:47:47.604Z,77.36
2018-08-20T22:50:16.625Z,77.06
2018-08-20T22:52:46.997Z,77.49
2018-08-20T22:55:17.220Z,76.99
2018-08-20T22:57:57.920Z,77.43
2018-08-20T23:00:27.423Z,77.28
2018-08-20T23:02:57.160Z,76.96
2018-08-20T23:05:29.261Z,77.38
2018-08-20T23:08:10.124Z,77.53
2018-08-20T23:10:40.029Z,77.45
2018-08-20T23:13:08.970Z,77.34
2018-08-20T23:15:37.897Z,77.62
2018-08-20T23:18:06.789Z,77.35
2018-08-20T23:20:35.881Z,77.79
2018-08-20T23:23:04.819Z,77.77
2018-08-20T23:25:33.828Z,77.48
2018-08-20T23:28:02.761Z,77.88
2018-08-20T23:30:31.668Z,77.51
2018-08-20T23:33:00.535Z,76.97
2018-08-20T23:35:29.419Z,77.61
2018-08-20T23:37:58.351Z,77.82
2018-08-20T23:40:27.288Z,77.17
2018-08-20T23:42:56.164Z,77.86
2018-08-20T23:45:25.101Z,77.38
2018-08-20T23:47:54.012Z,77.68
2018-08-20T23:50:22.915Z,77.79
2018-08-20T23:52:51.841Z,77.94
2018-08-20T23:55:20.799Z,77.58
2018-08-20T23:57:49.726Z,76.91
